sensor_id;sensor_type;location;lat;lon;timestamp;P1;durP1;ratioP1;P2;durP2;ratioP2
9467;SDS011;4772;52.382;9.752;2023-11-18T00:01:54;21.47;;;13.40;;
9467;SDS011;4772;52.382;9.752;2023-11-18T00:04:20;19.30;;;15.23;;
9467;SDS011;4772;52.382;9.752;2023-11-18T00:06:47;20.17;;;16.33;;
9467;SDS011;4772;52.382;9.752;2023-11-18T00:09:13;23.00;;;17.60;;
9467;SDS011;4772;52.382;9.752;2023-11-18T00:11:42;25.33;;;19.33;;
9467;SDS011;4772;52.382;9.752;2023-11-18T00:14:08;27.47;;;21.23;;
9467;SDS011;4772;52.382;9.752;2023-11-18T00:16:38;25.17;;;20.60;;
9467;SDS011;4772;52.382;9.752;2023-11-18T00:19:04;30.80;;;21.93;;
9467;SDS011;4772;52.382;9.752;2023-11-18T00:21:30;27.60;;;21.53;;
9467;SDS011;4772;52.382;9.752;2023-11-18T00:23:56;30.77;;;21.80;;
9467;SDS011;4772;52.382;9.752;2023-11-18T00:26:22;30.03;;;21.83;;
9467;SDS011;4772;52.382;9.752;2023-11-18T00:28:50;30.73;;;22.13;;
9467;SDS011;4772;52.382;9.752;2023-11-18T00:31:16;30.07;;;23.13;;
9467;SDS011;4772;52.382;9.752;2023-11-18T00:33:42;26.53;;;20.37;;
9467;SDS011;4772;52.382;9.752;2023-11-18T00:36:08;24.77;;;17.77;;
9467;SDS011;4772;52.382;9.752;2023-11-18T00:38:34;18.77;;;15.03;;
9467;SDS011;4772;52.382;9.752;2023-11-18T00:41:00;23.20;;;15.97;;
9467;SDS011;4772;52.382;9.752;2023-11-18T00:43:26;23.23;;;14.97;;
9467;SDS011;4772;52.382;9.752;2023-11-18T00:45:52;21.67;;;15.53;;
9467;SDS011;4772;52.382;9.752;2023-11-18T00:48:18;21.83;;;14.33;;
9467;SDS011;4772;52.382;9.752;2023-11-18T00:50:44;19.13;;;15.53;;
9467;SDS011;4772;52.382;9.752;2023-11-18T00:53:10;21.03;;;15.33;;
9467;SDS011;4772;52.382;9.752;2023-11-18T00:55:36;22.83;;;15.80;;
9467;SDS011;4772;52.382;9.752;2023-11-18T00:58:02;19.63;;;15.50;;
9467;SDS011;4772;52.382;9.752;2023-11-18T01:00:29;21.77;;;14.70;;
9467;SDS011;4772;52.382;9.752;2023-11-18T01:02:55;19.73;;;15.10;;
9467;SDS011;4772;52.382;9.752;2023-11-18T01:05:21;17.00;;;14.55;;
9467;SDS011;4772;52.382;9.752;2023-11-18T01:07:47;16.50;;;14.13;;
9467;SDS011;4772;52.382;9.752;2023-11-18T01:10:14;20.87;;;13.80;;
9467;SDS011;4772;52.382;9.752;2023-11-18T01:12:40;20.27;;;13.90;;
9467;SDS011;4772;52.382;9.752;2023-11-18T01:15:09;18.43;;;13.60;;
9467;SDS011;4772;52.382;9.752;2023-11-18T01:17:39;18.13;;;14.23;;
9467;SDS011;4772;52.382;9.752;2023-11-18T01:20:05;21.27;;;14.57;;
9467;SDS011;4772;52.382;9.752;2023-11-18T01:22:35;22.77;;;15.60;;
9467;SDS011;4772;52.382;9.752;2023-11-18T01:25:02;20.97;;;15.40;;
9467;SDS011;4772;52.382;9.752;2023-11-18T01:27:36;21.43;;;15.17;;
9467;SDS011;4772;52.382;9.752;2023-11-18T01:30:02;21.17;;;15.63;;
9467;SDS011;4772;52.382;9.752;2023-11-18T01:32:29;22.30;;;15.50;;
9467;SDS011;4772;52.382;9.752;2023-11-18T01:34:55;19.73;;;14.60;;
9467;SDS011;4772;52.382;9.752;2023-11-18T01:37:21;21.40;;;15.47;;
9467;SDS011;4772;52.382;9.752;2023-11-18T01:39:48;19.07;;;14.83;;
9467;SDS011;4772;52.382;9.752;2023-11-18T01:42:14;19.43;;;15.33;;
9467;SDS011;4772;52.382;9.752;2023-11-18T01:44:40;20.57;;;14.20;;
9467;SDS011;4772;52.382;9.752;2023-11-18T01:47:07;21.17;;;15.47;;
9467;SDS011;4772;52.382;9.752;2023-11-18T01:49:37;21.23;;;14.70;;
9467;SDS011;4772;52.382;9.752;2023-11-18T01:52:05;24.77;;;16.60;;
9467;SDS011;4772;52.382;9.752;2023-11-18T01:54:32;26.47;;;19.60;;
9467;SDS011;4772;52.382;9.752;2023-11-18T01:56:58;30.83;;;21.83;;
9467;SDS011;4772;52.382;9.752;2023-11-18T01:59:28;34.70;;;22.73;;
9467;SDS011;4772;52.382;9.752;2023-11-18T02:01:55;24.90;;;17.47;;
9467;SDS011;4772;52.382;9.752;2023-11-18T02:04:24;35.57;;;25.07;;
9467;SDS011;4772;52.382;9.752;2023-11-18T02:06:51;26.40;;;18.63;;
9467;SDS011;4772;52.382;9.752;2023-11-18T02:09:18;30.37;;;19.97;;
9467;SDS011;4772;52.382;9.752;2023-11-18T02:14:13;35.90;;;26.10;;
9467;SDS011;4772;52.382;9.752;2023-11-18T02:16:41;36.57;;;23.93;;
9467;SDS011;4772;52.382;9.752;2023-11-18T02:19:09;28.40;;;19.80;;
9467;SDS011;4772;52.382;9.752;2023-11-18T02:21:41;41.73;;;26.57;;
9467;SDS011;4772;52.382;9.752;2023-11-18T02:24:07;32.70;;;22.13;;
9467;SDS011;4772;52.382;9.752;2023-11-18T02:26:34;30.47;;;22.20;;
9467;SDS011;4772;52.382;9.752;2023-11-18T02:29:00;30.80;;;20.17;;
9467;SDS011;4772;52.382;9.752;2023-11-18T02:31:31;27.07;;;19.13;;
9467;SDS011;4772;52.382;9.752;2023-11-18T02:34:02;27.03;;;19.23;;
9467;SDS011;4772;52.382;9.752;2023-11-18T02:36:34;28.40;;;21.23;;
9467;SDS011;4772;52.382;9.752;2023-11-18T02:39:04;23.20;;;17.93;;
9467;SDS011;4772;52.382;9.752;2023-11-18T02:41:36;29.60;;;20.77;;
9467;SDS011;4772;52.382;9.752;2023-11-18T02:44:04;28.20;;;19.70;;
9467;SDS011;4772;52.382;9.752;2023-11-18T02:46:35;25.83;;;19.37;;
9467;SDS011;4772;52.382;9.752;2023-11-18T02:49:01;28.30;;;20.43;;
9467;SDS011;4772;52.382;9.752;2023-11-18T02:51:27;32.33;;;23.93;;
9467;SDS011;4772;52.382;9.752;2023-11-18T02:53:56;28.00;;;21.30;;
9467;SDS011;4772;52.382;9.752;2023-11-18T02:56:22;35.70;;;23.03;;
9467;SDS011;4772;52.382;9.752;2023-11-18T02:58:48;36.40;;;24.03;;
9467;SDS011;4772;52.382;9.752;2023-11-18T03:01:14;34.20;;;23.63;;
9467;SDS011;4772;52.382;9.752;2023-11-18T03:03:40;33.93;;;24.23;;
9467;SDS011;4772;52.382;9.752;2023-11-18T03:06:07;33.00;;;23.50;;
9467;SDS011;4772;52.382;9.752;2023-11-18T03:08:34;34.00;;;24.20;;
9467;SDS011;4772;52.382;9.752;2023-11-18T03:11:00;39.17;;;25.53;;
9467;SDS011;4772;52.382;9.752;2023-11-18T03:13:29;36.10;;;25.60;;
9467;SDS011;4772;52.382;9.752;2023-11-18T03:15:57;36.33;;;25.47;;
9467;SDS011;4772;52.382;9.752;2023-11-18T03:18:23;38.23;;;26.67;;
9467;SDS011;4772;52.382;9.752;2023-11-18T03:20:49;34.10;;;25.17;;
9467;SDS011;4772;52.382;9.752;2023-11-18T03:23:15;37.97;;;27.17;;
9467;SDS011;4772;52.382;9.752;2023-11-18T03:25:41;38.27;;;26.73;;
9467;SDS011;4772;52.382;9.752;2023-11-18T03:28:07;43.17;;;27.50;;
9467;SDS011;4772;52.382;9.752;2023-11-18T03:30:33;41.30;;;28.53;;
9467;SDS011;4772;52.382;9.752;2023-11-18T03:33:01;41.53;;;27.77;;
9467;SDS011;4772;52.382;9.752;2023-11-18T03:35:28;39.70;;;27.63;;
9467;SDS011;4772;52.382;9.752;2023-11-18T03:37:55;35.57;;;26.23;;
9467;SDS011;4772;52.382;9.752;2023-11-18T03:40:21;39.00;;;26.87;;
9467;SDS011;4772;52.382;9.752;2023-11-18T03:42:47;43.73;;;29.93;;
9467;SDS011;4772;52.382;9.752;2023-11-18T03:45:13;39.63;;;28.17;;
9467;SDS011;4772;52.382;9.752;2023-11-18T03:47:45;41.10;;;28.53;;
9467;SDS011;4772;52.382;9.752;2023-11-18T03:50:12;41.77;;;28.50;;
9467;SDS011;4772;52.382;9.752;2023-11-18T03:52:38;43.67;;;29.43;;
9467;SDS011;4772;52.382;9.752;2023-11-18T03:55:05;44.93;;;29.33;;
9467;SDS011;4772;52.382;9.752;2023-11-18T03:57:31;42.27;;;28.53;;
9467;SDS011;4772;52.382;9.752;2023-11-18T03:59:57;40.97;;;28.87;;
9467;SDS011;4772;52.382;9.752;2023-11-18T04:02:23;40.47;;;28.83;;
9467;SDS011;4772;52.382;9.752;2023-11-18T04:04:49;37.20;;;27.10;;
9467;SDS011;4772;52.382;9.752;2023-11-18T04:07:15;36.27;;;26.93;;
9467;SDS011;4772;52.382;9.752;2023-11-18T04:09:42;41.60;;;29.50;;
9467;SDS011;4772;52.382;9.752;2023-11-18T04:12:09;40.03;;;29.13;;
9467;SDS011;4772;52.382;9.752;2023-11-18T04:14:36;44.77;;;29.10;;
9467;SDS011;4772;52.382;9.752;2023-11-18T04:17:02;43.73;;;30.33;;
9467;SDS011;4772;52.382;9.752;2023-11-18T04:19:28;45.50;;;29.17;;
9467;SDS011;4772;52.382;9.752;2023-11-18T04:21:54;43.37;;;29.10;;
9467;SDS011;4772;52.382;9.752;2023-11-18T04:24:20;40.37;;;28.60;;
9467;SDS011;4772;52.382;9.752;2023-11-18T04:26:46;41.13;;;29.27;;
9467;SDS011;4772;52.382;9.752;2023-11-18T04:29:13;39.13;;;28.80;;
9467;SDS011;4772;52.382;9.752;2023-11-18T04:31:39;41.23;;;28.37;;
9467;SDS011;4772;52.382;9.752;2023-11-18T04:34:05;40.40;;;27.90;;
9467;SDS011;4772;52.382;9.752;2023-11-18T04:36:31;36.63;;;26.27;;
9467;SDS011;4772;52.382;9.752;2023-11-18T04:38:57;36.67;;;27.17;;
9467;SDS011;4772;52.382;9.752;2023-11-18T04:41:23;39.97;;;27.37;;
9467;SDS011;4772;52.382;9.752;2023-11-18T04:43:49;40.97;;;28.03;;
9467;SDS011;4772;52.382;9.752;2023-11-18T04:46:15;40.53;;;27.90;;
9467;SDS011;4772;52.382;9.752;2023-11-18T04:48:42;37.60;;;26.57;;
9467;SDS011;4772;52.382;9.752;2023-11-18T04:51:08;36.60;;;26.70;;
9467;SDS011;4772;52.382;9.752;2023-11-18T04:53:34;41.40;;;28.60;;
9467;SDS011;4772;52.382;9.752;2023-11-18T04:56:00;41.60;;;29.10;;
9467;SDS011;4772;52.382;9.752;2023-11-18T04:58:26;39.63;;;28.40;;
9467;SDS011;4772;52.382;9.752;2023-11-18T05:00:52;42.97;;;28.80;;
9467;SDS011;4772;52.382;9.752;2023-11-18T05:03:18;40.23;;;28.07;;
9467;SDS011;4772;52.382;9.752;2023-11-18T05:05:44;42.43;;;27.83;;
9467;SDS011;4772;52.382;9.752;2023-11-18T05:08:21;41.07;;;27.53;;
9467;SDS011;4772;52.382;9.752;2023-11-18T05:10:48;43.03;;;28.10;;
9467;SDS011;4772;52.382;9.752;2023-11-18T05:13:14;37.93;;;27.40;;
9467;SDS011;4772;52.382;9.752;2023-11-18T05:15:41;44.47;;;28.83;;
9467;SDS011;4772;52.382;9.752;2023-11-18T05:18:10;37.40;;;27.23;;
9467;SDS011;4772;52.382;9.752;2023-11-18T05:20:38;42.33;;;28.13;;
9467;SDS011;4772;52.382;9.752;2023-11-18T05:23:05;43.47;;;29.73;;
9467;SDS011;4772;52.382;9.752;2023-11-18T05:25:31;41.93;;;28.57;;
9467;SDS011;4772;52.382;9.752;2023-11-18T05:27:58;46.23;;;29.03;;
9467;SDS011;4772;52.382;9.752;2023-11-18T05:30:24;39.73;;;28.27;;
9467;SDS011;4772;52.382;9.752;2023-11-18T05:32:51;37.17;;;27.80;;
9467;SDS011;4772;52.382;9.752;2023-11-18T05:35:17;40.53;;;27.53;;
9467;SDS011;4772;52.382;9.752;2023-11-18T05:37:43;37.57;;;27.30;;
9467;SDS011;4772;52.382;9.752;2023-11-18T05:40:09;41.03;;;27.07;;
9467;SDS011;4772;52.382;9.752;2023-11-18T05:42:40;40.37;;;28.30;;
9467;SDS011;4772;52.382;9.752;2023-11-18T05:45:07;39.87;;;28.30;;
9467;SDS011;4772;52.382;9.752;2023-11-18T05:47:36;41.97;;;28.87;;
9467;SDS011;4772;52.382;9.752;2023-11-18T05:50:02;40.93;;;27.97;;
9467;SDS011;4772;52.382;9.752;2023-11-18T05:52:30;39.70;;;26.53;;
9467;SDS011;4772;52.382;9.752;2023-11-18T05:54:56;37.97;;;26.87;;
9467;SDS011;4772;52.382;9.752;2023-11-18T05:57:22;41.10;;;27.93;;
9467;SDS011;4772;52.382;9.752;2023-11-18T05:59:48;41.40;;;27.83;;
9467;SDS011;4772;52.382;9.752;2023-11-18T06:02:15;43.23;;;27.97;;
9467;SDS011;4772;52.382;9.752;2023-11-18T06:04:44;45.13;;;29.70;;
9467;SDS011;4772;52.382;9.752;2023-11-18T06:07:10;42.93;;;28.53;;
9467;SDS011;4772;52.382;9.752;2023-11-18T06:09:38;43.67;;;29.83;;
9467;SDS011;4772;52.382;9.752;2023-11-18T06:12:04;45.60;;;30.70;;
9467;SDS011;4772;52.382;9.752;2023-11-18T06:14:33;48.30;;;30.17;;
9467;SDS011;4772;52.382;9.752;2023-11-18T06:17:00;49.23;;;31.20;;
9467;SDS011;4772;52.382;9.752;2023-11-18T06:19:26;53.93;;;31.17;;
9467;SDS011;4772;52.382;9.752;2023-11-18T06:21:52;48.97;;;31.60;;
9467;SDS011;4772;52.382;9.752;2023-11-18T06:24:18;47.07;;;30.70;;
9467;SDS011;4772;52.382;9.752;2023-11-18T06:26:46;49.57;;;30.73;;
9467;SDS011;4772;52.382;9.752;2023-11-18T06:29:14;55.17;;;32.00;;
9467;SDS011;4772;52.382;9.752;2023-11-18T06:31:40;51.90;;;33.30;;
9467;SDS011;4772;52.382;9.752;2023-11-18T06:34:07;52.43;;;32.47;;
9467;SDS011;4772;52.382;9.752;2023-11-18T06:36:34;57.43;;;33.73;;
9467;SDS011;4772;52.382;9.752;2023-11-18T06:39:00;55.53;;;33.80;;
9467;SDS011;4772;52.382;9.752;2023-11-18T06:41:27;57.97;;;34.03;;
9467;SDS011;4772;52.382;9.752;2023-11-18T06:43:59;57.73;;;34.40;;
9467;SDS011;4772;52.382;9.752;2023-11-18T06:46:29;56.97;;;34.00;;
9467;SDS011;4772;52.382;9.752;2023-11-18T06:48:58;57.87;;;33.73;;
9467;SDS011;4772;52.382;9.752;2023-11-18T06:51:28;54.63;;;33.77;;
9467;SDS011;4772;52.382;9.752;2023-11-18T06:53:54;57.07;;;34.40;;
9467;SDS011;4772;52.382;9.752;2023-11-18T06:56:20;66.70;;;34.93;;
9467;SDS011;4772;52.382;9.752;2023-11-18T06:58:47;63.60;;;35.73;;
9467;SDS011;4772;52.382;9.752;2023-11-18T07:01:13;64.80;;;35.37;;
9467;SDS011;4772;52.382;9.752;2023-11-18T07:03:42;59.77;;;33.97;;
9467;SDS011;4772;52.382;9.752;2023-11-18T07:06:09;69.37;;;36.00;;
9467;SDS011;4772;52.382;9.752;2023-11-18T07:08:35;61.43;;;34.33;;
9467;SDS011;4772;52.382;9.752;2023-11-18T07:11:02;65.53;;;35.53;;
9467;SDS011;4772;52.382;9.752;2023-11-18T07:13:28;57.83;;;33.63;;
9467;SDS011;4772;52.382;9.752;2023-11-18T07:15:54;69.40;;;36.43;;
9467;SDS011;4772;52.382;9.752;2023-11-18T07:18:22;76.73;;;38.27;;
9467;SDS011;4772;52.382;9.752;2023-11-18T07:20:48;61.37;;;35.27;;
9467;SDS011;4772;52.382;9.752;2023-11-18T07:23:16;67.07;;;36.27;;
9467;SDS011;4772;52.382;9.752;2023-11-18T07:25:43;61.37;;;34.77;;
9467;SDS011;4772;52.382;9.752;2023-11-18T07:28:10;64.97;;;34.70;;
9467;SDS011;4772;52.382;9.752;2023-11-18T07:30:36;67.33;;;35.50;;
9467;SDS011;4772;52.382;9.752;2023-11-18T07:33:02;55.97;;;33.07;;
9467;SDS011;4772;52.382;9.752;2023-11-18T07:35:28;60.23;;;33.73;;
9467;SDS011;4772;52.382;9.752;2023-11-18T07:37:55;59.40;;;33.13;;
9467;SDS011;4772;52.382;9.752;2023-11-18T07:40:21;63.13;;;33.57;;
9467;SDS011;4772;52.382;9.752;2023-11-18T07:42:53;61.43;;;32.93;;
9467;SDS011;4772;52.382;9.752;2023-11-18T07:45:20;54.60;;;30.57;;
9467;SDS011;4772;52.382;9.752;2023-11-18T07:47:48;58.47;;;31.70;;
9467;SDS011;4772;52.382;9.752;2023-11-18T07:50:16;59.67;;;31.83;;
9467;SDS011;4772;52.382;9.752;2023-11-18T07:52:42;57.33;;;31.53;;
9467;SDS011;4772;52.382;9.752;2023-11-18T07:55:08;59.33;;;33.27;;
9467;SDS011;4772;52.382;9.752;2023-11-18T07:57:36;56.67;;;31.07;;
9467;SDS011;4772;52.382;9.752;2023-11-18T08:00:02;59.97;;;31.37;;
9467;SDS011;4772;52.382;9.752;2023-11-18T08:02:34;57.63;;;31.80;;
9467;SDS011;4772;52.382;9.752;2023-11-18T08:05:01;61.13;;;30.90;;
9467;SDS011;4772;52.382;9.752;2023-11-18T08:07:28;58.37;;;30.60;;
9467;SDS011;4772;52.382;9.752;2023-11-18T08:09:54;55.83;;;30.13;;
9467;SDS011;4772;52.382;9.752;2023-11-18T08:12:20;54.97;;;31.40;;
9467;SDS011;4772;52.382;9.752;2023-11-18T08:14:46;52.17;;;31.00;;
9467;SDS011;4772;52.382;9.752;2023-11-18T08:17:12;49.23;;;28.77;;
9467;SDS011;4772;52.382;9.752;2023-11-18T08:19:38;51.67;;;30.43;;
9467;SDS011;4772;52.382;9.752;2023-11-18T08:22:04;54.93;;;30.70;;
9467;SDS011;4772;52.382;9.752;2023-11-18T08:24:31;52.03;;;29.20;;
9467;SDS011;4772;52.382;9.752;2023-11-18T08:26:58;53.83;;;30.47;;
9467;SDS011;4772;52.382;9.752;2023-11-18T08:29:24;53.50;;;29.67;;
9467;SDS011;4772;52.382;9.752;2023-11-18T08:31:56;50.50;;;28.77;;
9467;SDS011;4772;52.382;9.752;2023-11-18T08:34:22;52.27;;;29.20;;
9467;SDS011;4772;52.382;9.752;2023-11-18T08:36:51;53.73;;;28.90;;
9467;SDS011;4772;52.382;9.752;2023-11-18T08:39:17;54.27;;;29.47;;
9467;SDS011;4772;52.382;9.752;2023-11-18T08:41:45;50.90;;;27.90;;
9467;SDS011;4772;52.382;9.752;2023-11-18T08:44:11;50.40;;;28.40;;
9467;SDS011;4772;52.382;9.752;2023-11-18T08:46:38;49.60;;;26.87;;
9467;SDS011;4772;52.382;9.752;2023-11-18T08:49:04;50.80;;;26.57;;
9467;SDS011;4772;52.382;9.752;2023-11-18T08:51:36;45.50;;;25.83;;
9467;SDS011;4772;52.382;9.752;2023-11-18T08:54:02;46.33;;;26.30;;
9467;SDS011;4772;52.382;9.752;2023-11-18T08:56:47;46.93;;;25.20;;
9467;SDS011;4772;52.382;9.752;2023-11-18T08:59:13;45.20;;;25.00;;
9467;SDS011;4772;52.382;9.752;2023-11-18T09:01:41;48.93;;;25.50;;
9467;SDS011;4772;52.382;9.752;2023-11-18T09:04:08;45.07;;;25.80;;
9467;SDS011;4772;52.382;9.752;2023-11-18T09:06:35;41.50;;;24.67;;
9467;SDS011;4772;52.382;9.752;2023-11-18T09:09:01;47.20;;;26.10;;
9467;SDS011;4772;52.382;9.752;2023-11-18T09:11:31;46.57;;;25.60;;
9467;SDS011;4772;52.382;9.752;2023-11-18T09:13:58;46.40;;;25.00;;
9467;SDS011;4772;52.382;9.752;2023-11-18T09:16:25;50.43;;;25.27;;
9467;SDS011;4772;52.382;9.752;2023-11-18T09:18:54;45.30;;;26.40;;
9467;SDS011;4772;52.382;9.752;2023-11-18T09:21:23;47.03;;;26.37;;
9467;SDS011;4772;52.382;9.752;2023-11-18T09:23:54;43.37;;;25.40;;
9467;SDS011;4772;52.382;9.752;2023-11-18T09:26:21;45.03;;;25.07;;
9467;SDS011;4772;52.382;9.752;2023-11-18T09:28:47;49.90;;;25.10;;
9467;SDS011;4772;52.382;9.752;2023-11-18T09:31:15;42.40;;;24.43;;
9467;SDS011;4772;52.382;9.752;2023-11-18T09:33:41;45.57;;;23.73;;
9467;SDS011;4772;52.382;9.752;2023-11-18T09:36:26;41.60;;;23.97;;
9467;SDS011;4772;52.382;9.752;2023-11-18T09:38:53;40.53;;;23.97;;
9467;SDS011;4772;52.382;9.752;2023-11-18T09:41:20;40.03;;;23.33;;
9467;SDS011;4772;52.382;9.752;2023-11-18T09:43:51;42.87;;;24.40;;
9467;SDS011;4772;52.382;9.752;2023-11-18T09:46:22;42.40;;;24.50;;
9467;SDS011;4772;52.382;9.752;2023-11-18T09:48:49;40.37;;;24.83;;
9467;SDS011;4772;52.382;9.752;2023-11-18T09:51:24;39.93;;;23.83;;
9467;SDS011;4772;52.382;9.752;2023-11-18T09:53:54;39.83;;;23.73;;
9467;SDS011;4772;52.382;9.752;2023-11-18T09:59:11;39.90;;;24.07;;
9467;SDS011;4772;52.382;9.752;2023-11-18T10:01:44;35.27;;;21.53;;
9467;SDS011;4772;52.382;9.752;2023-11-18T10:04:13;39.43;;;22.53;;
9467;SDS011;4772;52.382;9.752;2023-11-18T10:06:43;33.77;;;21.13;;
9467;SDS011;4772;52.382;9.752;2023-11-18T10:09:10;35.53;;;21.23;;
9467;SDS011;4772;52.382;9.752;2023-11-18T10:11:44;36.07;;;20.23;;
9467;SDS011;4772;52.382;9.752;2023-11-18T10:14:13;31.33;;;18.90;;
9467;SDS011;4772;52.382;9.752;2023-11-18T10:16:40;33.20;;;18.83;;
9467;SDS011;4772;52.382;9.752;2023-11-18T10:19:07;28.37;;;17.97;;
9467;SDS011;4772;52.382;9.752;2023-11-18T10:21:36;26.60;;;16.63;;
9467;SDS011;4772;52.382;9.752;2023-11-18T10:24:04;26.80;;;16.43;;
9467;SDS011;4772;52.382;9.752;2023-11-18T10:26:35;21.03;;;13.73;;
9467;SDS011;4772;52.382;9.752;2023-11-18T10:29:03;20.90;;;13.60;;
9467;SDS011;4772;52.382;9.752;2023-11-18T10:31:32;21.43;;;13.33;;
9467;SDS011;4772;52.382;9.752;2023-11-18T10:34:00;20.20;;;12.90;;
9467;SDS011;4772;52.382;9.752;2023-11-18T10:36:26;18.60;;;12.57;;
9467;SDS011;4772;52.382;9.752;2023-11-18T10:38:53;20.17;;;12.80;;
9467;SDS011;4772;52.382;9.752;2023-11-18T10:41:22;20.07;;;13.00;;
9467;SDS011;4772;52.382;9.752;2023-11-18T10:43:48;18.50;;;12.23;;
9467;SDS011;4772;52.382;9.752;2023-11-18T10:46:14;17.93;;;12.43;;
9467;SDS011;4772;52.382;9.752;2023-11-18T10:51:08;19.73;;;12.53;;
9467;SDS011;4772;52.382;9.752;2023-11-18T10:53:34;20.33;;;11.53;;
9467;SDS011;4772;52.382;9.752;2023-11-18T10:56:02;18.67;;;11.93;;
9467;SDS011;4772;52.382;9.752;2023-11-18T10:58:34;16.80;;;10.53;;
9467;SDS011;4772;52.382;9.752;2023-11-18T11:01:01;17.23;;;10.87;;
9467;SDS011;4772;52.382;9.752;2023-11-18T11:03:27;15.00;;;9.77;;
9467;SDS011;4772;52.382;9.752;2023-11-18T11:05:58;18.10;;;11.57;;
9467;SDS011;4772;52.382;9.752;2023-11-18T11:08:24;16.17;;;9.20;;
9467;SDS011;4772;52.382;9.752;2023-11-18T11:10:52;13.27;;;8.73;;
9467;SDS011;4772;52.382;9.752;2023-11-18T11:13:19;16.47;;;9.30;;
9467;SDS011;4772;52.382;9.752;2023-11-18T11:15:45;13.93;;;9.37;;
9467;SDS011;4772;52.382;9.752;2023-11-18T11:18:14;15.90;;;9.20;;
9467;SDS011;4772;52.382;9.752;2023-11-18T11:21:33;12.77;;;8.93;;
9467;SDS011;4772;52.382;9.752;2023-11-18T11:28:55;12.83;;;6.40;;
9467;SDS011;4772;52.382;9.752;2023-11-18T11:31:26;9.97;;;6.53;;
9467;SDS011;4772;52.382;9.752;2023-11-18T11:34:06;13.63;;;7.10;;
9467;SDS011;4772;52.382;9.752;2023-11-18T11:36:43;10.57;;;6.57;;
9467;SDS011;4772;52.382;9.752;2023-11-18T11:39:11;8.63;;;6.00;;
9467;SDS011;4772;52.382;9.752;2023-11-18T11:41:45;9.97;;;6.17;;
9467;SDS011;4772;52.382;9.752;2023-11-18T11:44:13;8.10;;;5.90;;
9467;SDS011;4772;52.382;9.752;2023-11-18T11:46:39;10.47;;;6.07;;
9467;SDS011;4772;52.382;9.752;2023-11-18T11:49:07;7.73;;;5.83;;
9467;SDS011;4772;52.382;9.752;2023-11-18T11:54:12;11.03;;;6.17;;
9467;SDS011;4772;52.382;9.752;2023-11-18T11:56:45;12.37;;;6.20;;
9467;SDS011;4772;52.382;9.752;2023-11-18T12:02:10;8.67;;;5.67;;
9467;SDS011;4772;52.382;9.752;2023-11-18T12:04:40;8.13;;;5.53;;
9467;SDS011;4772;52.382;9.752;2023-11-18T12:07:09;8.37;;;5.50;;
9467;SDS011;4772;52.382;9.752;2023-11-18T12:09:35;9.77;;;5.93;;
9467;SDS011;4772;52.382;9.752;2023-11-18T12:12:04;8.10;;;5.50;;
9467;SDS011;4772;52.382;9.752;2023-11-18T12:14:35;8.47;;;5.70;;
9467;SDS011;4772;52.382;9.752;2023-11-18T12:17:14;11.23;;;6.07;;
9467;SDS011;4772;52.382;9.752;2023-11-18T12:19:46;10.67;;;6.07;;
9467;SDS011;4772;52.382;9.752;2023-11-18T12:22:22;11.03;;;6.70;;
9467;SDS011;4772;52.382;9.752;2023-11-18T12:30:05;11.07;;;7.20;;
9467;SDS011;4772;52.382;9.752;2023-11-18T12:33:03;10.10;;;7.30;;
9467;SDS011;4772;52.382;9.752;2023-11-18T12:43:08;10.30;;;7.70;;
9467;SDS011;4772;52.382;9.752;2023-11-18T12:45:43;11.03;;;7.83;;
9467;SDS011;4772;52.382;9.752;2023-11-18T12:48:14;10.20;;;7.83;;
9467;SDS011;4772;52.382;9.752;2023-11-18T12:50:43;9.73;;;7.67;;
9467;SDS011;4772;52.382;9.752;2023-11-18T12:53:11;11.33;;;7.87;;
9467;SDS011;4772;52.382;9.752;2023-11-18T12:55:40;10.67;;;7.90;;
9467;SDS011;4772;52.382;9.752;2023-11-18T12:58:06;11.60;;;8.10;;
9467;SDS011;4772;52.382;9.752;2023-11-18T13:00:32;9.93;;;7.33;;
9467;SDS011;4772;52.382;9.752;2023-11-18T13:03:00;9.70;;;7.47;;
9467;SDS011;4772;52.382;9.752;2023-11-18T13:05:26;12.03;;;7.80;;
9467;SDS011;4772;52.382;9.752;2023-11-18T13:07:55;9.63;;;7.10;;
9467;SDS011;4772;52.382;9.752;2023-11-18T13:10:21;10.30;;;7.40;;
9467;SDS011;4772;52.382;9.752;2023-11-18T13:12:47;9.97;;;7.87;;
9467;SDS011;4772;52.382;9.752;2023-11-18T13:15:14;12.03;;;7.67;;
9467;SDS011;4772;52.382;9.752;2023-11-18T13:17:55;11.30;;;7.87;;
9467;SDS011;4772;52.382;9.752;2023-11-18T13:20:22;11.00;;;7.53;;
9467;SDS011;4772;52.382;9.752;2023-11-18T13:22:49;10.00;;;7.47;;
9467;SDS011;4772;52.382;9.752;2023-11-18T13:25:15;9.90;;;7.50;;
9467;SDS011;4772;52.382;9.752;2023-11-18T13:27:42;10.70;;;7.53;;
9467;SDS011;4772;52.382;9.752;2023-11-18T13:30:08;10.83;;;7.40;;
9467;SDS011;4772;52.382;9.752;2023-11-18T13:32:41;11.70;;;7.97;;
9467;SDS011;4772;52.382;9.752;2023-11-18T13:35:08;12.57;;;7.77;;
9467;SDS011;4772;52.382;9.752;2023-11-18T13:37:34;10.03;;;7.80;;
9467;SDS011;4772;52.382;9.752;2023-11-18T13:40:00;10.53;;;7.47;;
9467;SDS011;4772;52.382;9.752;2023-11-18T13:42:30;11.43;;;7.40;;
9467;SDS011;4772;52.382;9.752;2023-11-18T13:45:05;12.10;;;8.20;;
9467;SDS011;4772;52.382;9.752;2023-11-18T13:47:33;10.30;;;8.10;;
9467;SDS011;4772;52.382;9.752;2023-11-18T13:49:59;14.60;;;7.67;;
9467;SDS011;4772;52.382;9.752;2023-11-18T13:52:25;9.53;;;7.30;;
9467;SDS011;4772;52.382;9.752;2023-11-18T13:54:51;9.90;;;7.07;;
9467;SDS011;4772;52.382;9.752;2023-11-18T13:57:20;8.83;;;7.10;;
9467;SDS011;4772;52.382;9.752;2023-11-18T13:59:50;13.50;;;6.80;;
9467;SDS011;4772;52.382;9.752;2023-11-18T14:02:16;8.40;;;6.90;;
9467;SDS011;4772;52.382;9.752;2023-11-18T14:04:45;9.43;;;7.03;;
9467;SDS011;4772;52.382;9.752;2023-11-18T14:07:14;9.00;;;7.00;;
9467;SDS011;4772;52.382;9.752;2023-11-18T14:09:42;10.20;;;7.47;;
9467;SDS011;4772;52.382;9.752;2023-11-18T14:12:10;9.83;;;7.07;;
9467;SDS011;4772;52.382;9.752;2023-11-18T14:14:36;9.00;;;6.97;;
9467;SDS011;4772;52.382;9.752;2023-11-18T14:17:03;9.87;;;6.90;;
9467;SDS011;4772;52.382;9.752;2023-11-18T14:19:31;8.97;;;6.77;;
9467;SDS011;4772;52.382;9.752;2023-11-18T14:22:00;8.60;;;6.97;;
9467;SDS011;4772;52.382;9.752;2023-11-18T14:24:26;9.43;;;6.83;;
9467;SDS011;4772;52.382;9.752;2023-11-18T14:26:57;8.90;;;7.07;;
9467;SDS011;4772;52.382;9.752;2023-11-18T14:29:23;9.83;;;7.27;;
9467;SDS011;4772;52.382;9.752;2023-11-18T14:31:49;8.73;;;7.10;;
9467;SDS011;4772;52.382;9.752;2023-11-18T14:34:15;8.93;;;7.03;;
9467;SDS011;4772;52.382;9.752;2023-11-18T14:36:43;8.83;;;6.57;;
9467;SDS011;4772;52.382;9.752;2023-11-18T14:39:09;9.53;;;6.93;;
9467;SDS011;4772;52.382;9.752;2023-11-18T14:41:38;7.47;;;6.53;;
9467;SDS011;4772;52.382;9.752;2023-11-18T14:44:05;9.47;;;7.00;;
9467;SDS011;4772;52.382;9.752;2023-11-18T14:46:34;9.57;;;6.60;;
9467;SDS011;4772;52.382;9.752;2023-11-18T14:49:00;9.10;;;6.67;;
9467;SDS011;4772;52.382;9.752;2023-11-18T14:51:26;10.23;;;6.83;;
9467;SDS011;4772;52.382;9.752;2023-11-18T14:53:52;10.97;;;6.90;;
9467;SDS011;4772;52.382;9.752;2023-11-18T14:56:19;8.37;;;5.90;;
9467;SDS011;4772;52.382;9.752;2023-11-18T14:58:45;10.07;;;6.80;;
9467;SDS011;4772;52.382;9.752;2023-11-18T15:01:14;8.63;;;6.33;;
9467;SDS011;4772;52.382;9.752;2023-11-18T15:03:40;8.50;;;6.97;;
9467;SDS011;4772;52.382;9.752;2023-11-18T15:06:06;8.40;;;6.87;;
9467;SDS011;4772;52.382;9.752;2023-11-18T15:08:35;8.83;;;7.23;;
9467;SDS011;4772;52.382;9.752;2023-11-18T15:11:01;8.87;;;6.57;;
9467;SDS011;4772;52.382;9.752;2023-11-18T15:13:27;9.23;;;7.00;;
9467;SDS011;4772;52.382;9.752;2023-11-18T15:15:53;9.97;;;7.47;;
9467;SDS011;4772;52.382;9.752;2023-11-18T15:18:20;8.13;;;7.00;;
9467;SDS011;4772;52.382;9.752;2023-11-18T15:20:46;9.77;;;7.60;;
9467;SDS011;4772;52.382;9.752;2023-11-18T15:23:13;9.87;;;7.03;;
9467;SDS011;4772;52.382;9.752;2023-11-18T15:25:42;10.57;;;8.17;;
9467;SDS011;4772;52.382;9.752;2023-11-18T15:28:08;11.77;;;8.37;;